createdAt,value
2022-12-08T00:01:07.671Z,74.66
2022-12-08T00:03:35.055Z,73.96
2022-12-08T00:06:23.626Z,73.38
2022-12-08T00:09:08.497Z,73.30
2022-12-08T00:11:35.058Z,73.55
2022-12-08T00:14:01.900Z,73.21
2022-12-08T00:16:28.369Z,73.22
2022-12-08T00:18:54.912Z,74.14
2022-12-08T00:21:21.390Z,74.08
2022-12-08T00:23:47.862Z,74.13
2022-12-08T00:26:14.384Z,73.83
2022-12-08T00:28:40.820Z,74.25
2022-12-08T00:31:09.215Z,73.65
2022-12-08T00:33:36.127Z,74.01
2022-12-08T00:36:10.572Z,74.10
2022-12-08T00:38:37.550Z,73.99
2022-12-08T00:41:07.395Z,73.83
2022-12-08T00:43:33.827Z,74.32
2022-12-08T00:46:00.337Z,74.38
2022-12-08T00:48:26.868Z,74.70
2022-12-08T00:50:53.320Z,74.08
2022-12-08T00:53:19.794Z,74.02
2022-12-08T00:55:46.261Z,73.46
2022-12-08T00:58:12.867Z,73.34
2022-12-08T01:00:43.193Z,73.64
2022-12-08T01:03:10.988Z,73.67
2022-12-08T01:05:37.666Z,73.91
2022-12-08T01:08:08.645Z,74.73
2022-12-08T01:10:36.647Z,74.00
2022-12-08T01:13:03.995Z,74.39
2022-12-08T01:15:30.477Z,75.07
2022-12-08T01:17:56.977Z,75.63
2022-12-08T01:20:23.496Z,75.29
2022-12-08T01:22:50.012Z,74.54
2022-12-08T01:25:16.508Z,74.33
2022-12-08T01:27:42.961Z,74.66
2022-12-08T01:30:10.033Z,75.00
2022-12-08T01:32:36.878Z,74.79
2022-12-08T01:35:03.524Z,74.41
2022-12-08T01:37:30.106Z,74.49
2022-12-08T01:39:56.562Z,75.27
2022-12-08T01:42:23.560Z,75.80
2022-12-08T01:44:54.694Z,75.16
2022-12-08T01:47:22.950Z,74.71
2022-12-08T01:49:49.458Z,75.27
2022-12-08T01:52:29.095Z,75.77
2022-12-08T01:55:15.282Z,75.93
2022-12-08T01:57:47.101Z,76.22
2022-12-08T02:00:16.195Z,76.62
2022-12-08T02:02:54.834Z,76.43
2022-12-08T02:09:47.968Z,76.28
2022-12-08T02:12:15.175Z,76.90
2022-12-08T02:14:41.586Z,77.04
2022-12-08T02:17:47.788Z,76.79
2022-12-08T02:20:37.980Z,77.87
2022-12-08T02:23:41.279Z,78.39
2022-12-08T02:26:45.094Z,78.31
2022-12-08T02:29:20.575Z,78.91
2022-12-08T02:32:34.187Z,78.95
2022-12-08T02:35:14.483Z,78.03
2022-12-08T02:37:44.081Z,78.50
2022-12-08T02:40:21.976Z,78.30
2022-12-08T02:43:02.760Z,78.39
2022-12-08T02:45:38.981Z,77.91
2022-12-08T02:48:05.878Z,77.95
2022-12-08T02:50:32.320Z,78.54
2022-12-08T02:52:58.834Z,78.13
2022-12-08T02:55:30.706Z,78.54
2022-12-08T02:58:35.486Z,79.16
2022-12-08T03:01:29.111Z,78.43
2022-12-08T03:04:22.556Z,78.75
2022-12-08T03:06:58.866Z,79.31
2022-12-08T03:09:50.231Z,78.25
2022-12-08T03:12:32.829Z,78.75
2022-12-08T03:15:06.914Z,78.73
2022-12-08T03:17:33.880Z,78.91
2022-12-08T03:20:07.604Z,79.04
2022-12-08T03:22:34.288Z,78.41
2022-12-08T03:25:01.422Z,79.16
2022-12-08T03:27:31.410Z,78.81
2022-12-08T03:30:00.201Z,79.73
2022-12-08T03:32:30.095Z,79.16
2022-12-08T03:35:00.685Z,78.65
2022-12-08T03:37:28.408Z,79.11
2022-12-08T03:39:55.471Z,79.18
2022-12-08T03:42:22.177Z,78.59
2022-12-08T03:44:48.648Z,78.75
2022-12-08T03:47:15.190Z,78.67
2022-12-08T03:49:41.629Z,79.10
2022-12-08T03:52:08.098Z,79.28
2022-12-08T03:54:34.544Z,79.27
2022-12-08T03:57:01.020Z,79.24
2022-12-08T03:59:27.512Z,79.02
2022-12-08T04:01:54.045Z,79.15
2022-12-08T04:04:20.677Z,78.68
2022-12-08T04:06:47.419Z,79.24
2022-12-08T04:09:14.807Z,79.59
2022-12-08T04:11:41.448Z,78.96
2022-12-08T04:14:07.928Z,79.45
2022-12-08T04:16:34.419Z,79.42
2022-12-08T04:19:01.015Z,79.30
2022-12-08T04:21:27.858Z,78.93
2022-12-08T04:24:00.838Z,78.62
2022-12-08T04:26:28.162Z,78.86
2022-12-08T04:28:54.690Z,78.31
2022-12-08T04:31:21.265Z,78.46
2022-12-08T04:33:48.669Z,78.46
2022-12-08T04:36:15.243Z,78.54
2022-12-08T04:38:41.645Z,78.36
2022-12-08T04:41:08.109Z,77.66
2022-12-08T04:43:35.533Z,77.79
2022-12-08T04:46:02.055Z,78.52
2022-12-08T04:48:28.571Z,78.63
2022-12-08T04:50:55.063Z,77.34
2022-12-08T04:53:21.624Z,76.70
2022-12-08T04:55:49.638Z,76.93
2022-12-08T04:58:18.551Z,77.72
2022-12-08T05:00:45.870Z,77.53
2022-12-08T05:03:13.353Z,76.57
2022-12-08T05:05:40.094Z,77.04
2022-12-08T05:08:06.605Z,77.66
2022-12-08T05:10:33.350Z,77.65
2022-12-08T05:13:00.559Z,77.29
2022-12-08T05:15:27.369Z,77.13
2022-12-08T05:17:54.031Z,76.93
2022-12-08T05:20:20.500Z,76.81
2022-12-08T05:22:47.104Z,76.49
2022-12-08T05:25:13.715Z,77.06
2022-12-08T05:27:40.190Z,77.04
2022-12-08T05:30:07.438Z,77.50
2022-12-08T05:32:34.140Z,77.30
2022-12-08T05:35:00.578Z,76.44
2022-12-08T05:37:27.047Z,76.61
2022-12-08T05:39:53.492Z,77.49
2022-12-08T05:42:24.603Z,77.42
2022-12-08T05:44:51.469Z,78.33
2022-12-08T05:47:17.904Z,78.12
2022-12-08T05:49:44.929Z,78.46
2022-12-08T05:52:11.347Z,78.15
2022-12-08T05:54:38.143Z,77.96
2022-12-08T05:57:04.729Z,78.72
2022-12-08T05:59:31.168Z,78.64
2022-12-08T06:01:57.768Z,78.40
2022-12-08T06:04:24.388Z,78.61
2022-12-08T06:06:50.846Z,78.34
2022-12-08T06:09:17.291Z,78.26
2022-12-08T06:11:43.808Z,77.86
2022-12-08T06:14:11.933Z,77.97
2022-12-08T06:16:38.572Z,78.34
2022-12-08T06:19:05.138Z,78.50
2022-12-08T06:21:31.704Z,78.71
2022-12-08T06:23:58.189Z,79.42
2022-12-08T06:26:24.825Z,79.10
2022-12-08T06:28:51.733Z,79.06
2022-12-08T06:31:21.179Z,79.44
2022-12-08T06:33:47.937Z,79.52
2022-12-08T06:36:16.346Z,79.10
2022-12-08T06:38:43.968Z,79.84
2022-12-08T06:41:12.055Z,79.03
2022-12-08T06:43:38.733Z,79.47
2022-12-08T06:46:07.680Z,79.19
2022-12-08T06:48:34.385Z,78.77
2022-12-08T06:51:15.147Z,78.66
2022-12-08T06:53:42.460Z,79.08
2022-12-08T06:56:09.427Z,78.70
2022-12-08T06:58:36.076Z,79.35
2022-12-08T07:01:11.100Z,79.18
2022-12-08T07:03:38.907Z,79.19
2022-12-08T07:06:06.475Z,79.07
2022-12-08T07:08:34.116Z,79.02
2022-12-08T07:11:06.595Z,79.23
2022-12-08T07:13:33.047Z,79.41
2022-12-08T07:15:59.442Z,79.56
2022-12-08T07:18:25.903Z,79.67
2022-12-08T07:20:52.350Z,79.33
2022-12-08T07:23:19.033Z,79.04
2022-12-08T07:25:45.945Z,79.37
2022-12-08T07:28:18.120Z,79.27
2022-12-08T07:30:46.620Z,79.10
2022-12-08T07:33:13.664Z,79.01
2022-12-08T07:35:43.821Z,79.75
2022-12-08T07:38:20.598Z,79.44
2022-12-08T07:40:49.916Z,79.90
2022-12-08T07:43:16.441Z,79.68
2022-12-08T07:45:43.450Z,79.40
2022-12-08T07:48:13.206Z,79.13
2022-12-08T07:50:42.168Z,79.14
2022-12-08T07:53:09.688Z,79.13
2022-12-08T07:55:40.902Z,79.46
2022-12-08T07:58:10.757Z,79.38
2022-12-08T08:00:40.631Z,79.37
2022-12-08T08:03:13.239Z,79.17
2022-12-08T08:05:43.145Z,78.84
2022-12-08T08:08:14.182Z,79.49
2022-12-08T08:10:41.107Z,79.67
2022-12-08T08:13:11.051Z,79.70
2022-12-08T08:15:37.686Z,78.86
2022-12-08T08:18:07.627Z,78.87
2022-12-08T08:20:34.135Z,79.14
2022-12-08T08:23:07.893Z,79.26
2022-12-08T08:25:37.127Z,79.38
2022-12-08T08:28:05.997Z,79.22
2022-12-08T08:30:32.574Z,79.31
2022-12-08T08:33:08.462Z,79.91
2022-12-08T08:35:35.066Z,79.48
2022-12-08T08:38:01.895Z,79.37
2022-12-08T08:40:28.461Z,79.53
2022-12-08T08:42:55.200Z,80.06
2022-12-08T08:45:21.900Z,78.99
2022-12-08T08:47:48.422Z,78.72
2022-12-08T08:50:15.052Z,78.50
2022-12-08T08:52:41.743Z,78.55
2022-12-08T08:55:11.365Z,78.12
2022-12-08T08:57:38.238Z,78.58
2022-12-08T09:00:10.324Z,78.77
2022-12-08T09:02:38.436Z,78.80
2022-12-08T09:05:09.373Z,79.08
2022-12-08T09:07:36.388Z,79.28
2022-12-08T09:10:03.725Z,79.70
2022-12-08T09:12:30.888Z,78.83
2022-12-08T09:14:57.733Z,78.66
2022-12-08T09:17:27.707Z,78.66
2022-12-08T09:19:55.015Z,78.33
2022-12-08T09:22:30.643Z,78.20
2022-12-08T09:25:00.772Z,78.42
2022-12-08T09:27:31.231Z,78.31
2022-12-08T09:29:59.921Z,78.13
2022-12-08T09:32:32.889Z,78.00
2022-12-08T09:34:59.845Z,78.12
2022-12-08T09:37:26.721Z,78.09
2022-12-08T09:39:59.973Z,77.08
2022-12-08T09:43:07.539Z,77.42
2022-12-08T09:45:41.552Z,77.38
2022-12-08T09:48:19.308Z,77.75
2022-12-08T09:50:53.781Z,77.55
2022-12-08T09:53:32.082Z,77.73
2022-12-08T09:56:05.471Z,77.50
2022-12-08T09:58:53.172Z,77.12
2022-12-08T10:01:23.510Z,77.14
2022-12-08T10:03:59.780Z,77.40
2022-12-08T10:06:47.907Z,77.30
2022-12-08T10:09:23.464Z,76.65
2022-12-08T10:12:21.934Z,76.46
2022-12-08T10:15:22.280Z,76.33
2022-12-08T10:17:59.016Z,77.04
2022-12-08T10:20:31.496Z,76.72
2022-12-08T10:23:34.491Z,76.77
2022-12-08T10:26:20.236Z,77.29
2022-12-08T10:28:56.425Z,76.88
2022-12-08T10:31:27.721Z,77.14
2022-12-08T10:34:14.104Z,77.33
2022-12-08T10:36:58.364Z,77.51
2022-12-08T10:39:35.231Z,77.44
2022-12-08T10:42:07.844Z,77.02
2022-12-08T10:44:50.100Z,77.43
2022-12-08T10:47:36.265Z,77.55
2022-12-08T10:50:07.660Z,77.00
2022-12-08T10:52:38.914Z,78.21
2022-12-08T10:55:17.764Z,77.71
2022-12-08T10:57:44.550Z,77.61
2022-12-08T11:00:17.394Z,77.82
2022-12-08T11:03:00.241Z,77.50
2022-12-08T11:05:34.311Z,77.59
2022-12-08T11:08:03.452Z,77.15
2022-12-08T11:11:11.367Z,77.24
2022-12-08T11:13:43.964Z,76.92
2022-12-08T11:16:15.142Z,77.65
2022-12-08T11:18:44.747Z,77.13
2022-12-08T11:21:17.535Z,76.84
2022-12-08T11:23:52.023Z,77.27
2022-12-08T11:26:36.993Z,76.98
2022-12-08T11:29:04.555Z,76.44
2022-12-08T11:31:40.876Z,77.16
2022-12-08T11:34:19.593Z,76.96
2022-12-08T11:36:54.229Z,77.03
2022-12-08T11:39:22.346Z,77.78
2022-12-08T11:41:58.912Z,78.13
2022-12-08T11:44:58.907Z,78.11
2022-12-08T11:47:35.670Z,78.13
2022-12-08T11:50:34.119Z,77.91
2022-12-08T11:53:01.725Z,78.05
2022-12-08T11:55:49.917Z,78.38
2022-12-08T11:58:23.947Z,77.16
2022-12-08T12:00:51.017Z,77.89
2022-12-08T12:04:13.699Z,77.46
2022-12-08T12:07:19.488Z,77.09
2022-12-08T12:10:09.520Z,77.57
2022-12-08T12:13:20.834Z,78.12
2022-12-08T12:16:43.639Z,77.67
2022-12-08T12:19:32.648Z,77.67
2022-12-08T12:22:29.585Z,77.17
2022-12-08T12:25:02.757Z,77.23
2022-12-08T12:27:37.479Z,78.25
2022-12-08T12:30:25.374Z,77.73
2022-12-08T12:32:54.054Z,78.42
2022-12-08T12:35:43.700Z,77.82
2022-12-08T12:38:57.682Z,78.00
2022-12-08T12:41:47.358Z,78.21
2022-12-08T12:44:13.780Z,77.91
2022-12-08T12:46:42.212Z,78.03
2022-12-08T12:49:39.942Z,77.03
2022-12-08T12:52:34.147Z,77.36
2022-12-08T12:55:00.723Z,76.87
2022-12-08T12:57:40.126Z,77.45
2022-12-08T13:00:13.143Z,77.34
2022-12-08T13:02:49.829Z,76.98
2022-12-08T13:05:28.077Z,77.42
2022-12-08T13:07:58.363Z,77.06
2022-12-08T13:10:35.094Z,76.49
2022-12-08T13:13:10.690Z,76.42
2022-12-08T13:15:40.041Z,76.35
2022-12-08T13:18:16.482Z,75.80
2022-12-08T13:20:48.145Z,76.51
2022-12-08T13:23:37.258Z,75.76
2022-12-08T13:26:20.171Z,75.98
2022-12-08T13:28:58.779Z,75.53
2022-12-08T13:31:50.657Z,76.08
2022-12-08T13:34:57.953Z,76.72
2022-12-08T13:37:53.945Z,76.71
2022-12-08T13:40:32.139Z,77.10
2022-12-08T13:43:25.689Z,77.59
2022-12-08T13:50:23.075Z,77.53
2022-12-08T13:57:28.835Z,76.56
2022-12-08T14:00:04.781Z,77.42
2022-12-08T14:02:47.053Z,76.85
2022-12-08T14:05:18.633Z,76.36
2022-12-08T14:07:47.818Z,76.42
2022-12-08T14:10:40.698Z,76.78
2022-12-08T14:13:12.186Z,76.39
2022-12-08T14:15:40.248Z,75.61
2022-12-08T14:18:23.442Z,75.56
2022-12-08T14:23:50.375Z,75.83
2022-12-08T14:26:17.931Z,75.68
2022-12-08T14:28:45.167Z,76.70
2022-12-08T14:31:14.121Z,77.00
2022-12-08T14:33:41.347Z,77.53
2022-12-08T14:36:10.307Z,76.86
2022-12-08T14:38:36.969Z,76.02
2022-12-08T14:41:08.928Z,76.09
2022-12-08T14:43:36.306Z,76.93
2022-12-08T14:46:21.082Z,77.41
2022-12-08T14:48:47.769Z,76.59
2022-12-08T14:51:23.215Z,77.04
2022-12-08T14:53:58.792Z,76.34
2022-12-08T14:56:52.325Z,75.90
2022-12-08T14:59:32.469Z,76.45
2022-12-08T15:02:29.272Z,75.91
2022-12-08T15:04:58.699Z,76.48
2022-12-08T15:07:30.302Z,75.60
2022-12-08T15:10:17.984Z,76.03
2022-12-08T15:13:22.161Z,75.62
2022-12-08T15:15:51.883Z,74.84
2022-12-08T15:18:38.042Z,75.24
2022-12-08T15:21:09.158Z,75.05
2022-12-08T15:23:48.472Z,75.31
2022-12-08T15:26:23.973Z,75.25
2022-12-08T15:28:58.412Z,76.06
2022-12-08T15:31:25.116Z,76.06
2022-12-08T15:33:51.928Z,75.15
2022-12-08T15:36:21.897Z,75.09
2022-12-08T15:38:48.520Z,75.52
2022-12-08T15:41:15.489Z,75.14
2022-12-08T15:43:45.422Z,75.79
2022-12-08T15:46:16.803Z,75.69
2022-12-08T15:48:46.851Z,75.18
2022-12-08T15:52:11.068Z,75.13
2022-12-08T15:54:44.032Z,75.33
2022-12-08T15:58:17.103Z,75.82
2022-12-08T16:00:50.417Z,75.37
2022-12-08T16:09:17.291Z,75.36
2022-12-08T16:12:07.876Z,75.78
2022-12-08T16:17:22.704Z,75.04
2022-12-08T16:19:49.482Z,75.62
2022-12-08T16:25:18.367Z,75.46
2022-12-08T16:28:17.247Z,75.89
2022-12-08T16:30:33.065Z,75.78
2022-12-08T16:32:59.665Z,75.70
2022-12-08T16:35:26.189Z,75.76
2022-12-08T16:37:55.364Z,75.57
2022-12-08T16:40:25.069Z,75.56
2022-12-08T16:42:51.763Z,76.00
2022-12-08T16:45:21.179Z,75.89
2022-12-08T16:47:56.673Z,75.57
2022-12-08T16:50:29.398Z,75.30
2022-12-08T16:53:07.398Z,75.89
2022-12-08T16:55:35.281Z,75.91
2022-12-08T16:58:07.918Z,76.33
2022-12-08T17:00:38.247Z,76.38
2022-12-08T17:03:11.769Z,76.20
2022-12-08T17:05:52.493Z,76.40
2022-12-08T17:08:19.327Z,77.35
2022-12-08T17:11:06.150Z,76.53
2022-12-08T17:13:33.316Z,76.89
2022-12-08T17:16:00.083Z,76.60
2022-12-08T17:18:30.139Z,77.07
2022-12-08T17:20:56.944Z,76.33
2022-12-08T17:23:23.637Z,76.08
2022-12-08T17:26:00.904Z,76.17
2022-12-08T17:28:58.443Z,76.37
2022-12-08T17:31:16.147Z,76.25
2022-12-08T17:33:42.966Z,75.60
2022-12-08T17:36:13.712Z,75.92
2022-12-08T17:38:40.577Z,75.89
2022-12-08T17:41:08.906Z,75.89
2022-12-08T17:43:36.230Z,75.84
2022-12-08T17:46:03.246Z,75.70
2022-12-08T17:48:30.548Z,75.96
2022-12-08T17:50:57.183Z,76.13
2022-12-08T17:53:23.845Z,75.79
2022-12-08T17:55:55.538Z,75.92
2022-12-08T17:58:23.202Z,75.90
2022-12-08T18:00:50.891Z,76.22
2022-12-08T18:03:19.189Z,75.60
2022-12-08T18:05:49.519Z,75.61
2022-12-08T18:10:59.318Z,75.71
2022-12-08T18:13:26.142Z,76.01
2022-12-08T18:16:06.392Z,75.81
2022-12-08T18:18:34.774Z,75.86
2022-12-08T18:21:04.557Z,75.65
2022-12-08T18:23:33.894Z,75.70
2022-12-08T18:26:00.653Z,76.10
2022-12-08T18:28:27.384Z,75.85
2022-12-08T18:30:54.058Z,75.83
2022-12-08T18:33:20.845Z,76.21
2022-12-08T18:35:47.449Z,75.73
2022-12-08T18:38:17.266Z,76.20
2022-12-08T18:40:43.890Z,75.99
2022-12-08T18:43:10.655Z,76.45
2022-12-08T18:45:39.499Z,76.04
2022-12-08T18:48:07.093Z,76.52
2022-12-08T18:50:33.871Z,75.83
2022-12-08T18:53:00.485Z,75.96
2022-12-08T18:55:27.081Z,75.97
2022-12-08T18:57:53.796Z,75.58
2022-12-08T19:00:21.070Z,76.11
2022-12-08T19:02:47.672Z,75.71
2022-12-08T19:05:15.427Z,75.90
2022-12-08T19:07:42.862Z,75.70
2022-12-08T19:10:10.378Z,75.74
2022-12-08T19:12:37.148Z,75.86
2022-12-08T19:15:04.216Z,75.38
2022-12-08T19:17:31.014Z,75.70
2022-12-08T19:19:57.459Z,75.87
2022-12-08T19:22:23.994Z,76.03
2022-12-08T19:24:50.465Z,75.81
2022-12-08T19:27:17.001Z,75.97
2022-12-08T19:29:43.424Z,75.71
2022-12-08T19:32:09.873Z,76.01
2022-12-08T19:34:36.413Z,75.68
2022-12-08T19:37:03.070Z,75.49
2022-12-08T19:39:48.116Z,75.75
2022-12-08T19:42:35.807Z,75.54
2022-12-08T19:45:15.333Z,75.96
2022-12-08T19:47:42.365Z,75.76
2022-12-08T19:50:33.250Z,76.61
2022-12-08T19:53:00.782Z,75.62
2022-12-08T19:55:27.455Z,75.25
2022-12-08T19:57:54.649Z,74.57
2022-12-08T20:00:21.315Z,75.45
2022-12-08T20:02:47.935Z,75.54
2022-12-08T20:05:15.117Z,75.05
2022-12-08T20:07:41.956Z,74.95
2022-12-08T20:10:16.036Z,74.90
2022-12-08T20:12:42.583Z,75.06
2022-12-08T20:15:10.217Z,74.95
2022-12-08T20:17:38.215Z,75.64
2022-12-08T20:20:07.709Z,75.75
2022-12-08T20:22:34.358Z,75.28
2022-12-08T20:25:01.249Z,75.03
2022-12-08T20:27:28.955Z,74.91
2022-12-08T20:29:55.388Z,74.69
2022-12-08T20:32:21.861Z,74.79
2022-12-08T20:34:48.283Z,74.75
2022-12-08T20:37:14.760Z,74.63
2022-12-08T20:39:41.320Z,74.77
2022-12-08T20:42:12.764Z,75.32
2022-12-08T20:44:43.270Z,75.38
2022-12-08T20:47:11.146Z,75.21
2022-12-08T20:49:37.852Z,75.05
2022-12-08T20:52:04.648Z,75.17
2022-12-08T20:54:31.145Z,75.22
2022-12-08T20:56:57.826Z,75.99
2022-12-08T20:59:26.355Z,76.61
2022-12-08T21:01:53.930Z,76.27
2022-12-08T21:04:20.801Z,76.04
2022-12-08T21:06:47.795Z,76.00
2022-12-08T21:09:14.511Z,75.56
2022-12-08T21:11:42.461Z,75.54
2022-12-08T21:14:09.110Z,75.59
2022-12-08T21:16:35.878Z,75.51
2022-12-08T21:19:02.784Z,75.75
2022-12-08T21:21:29.496Z,75.20
2022-12-08T21:23:56.165Z,75.71
2022-12-08T21:26:26.011Z,75.78
2022-12-08T21:28:54.717Z,75.72
2022-12-08T21:31:21.934Z,76.27
2022-12-08T21:33:49.180Z,76.56
2022-12-08T21:36:19.152Z,76.21
2022-12-08T21:38:46.917Z,75.87
2022-12-08T21:41:36.932Z,75.66
2022-12-08T21:44:04.811Z,75.45
2022-12-08T21:46:31.694Z,75.48
2022-12-08T21:48:58.326Z,75.44
2022-12-08T21:51:25.176Z,75.52
2022-12-08T21:53:51.707Z,75.31
2022-12-08T21:56:18.365Z,75.30
2022-12-08T21:58:44.964Z,75.35
2022-12-08T22:01:12.110Z,75.40
2022-12-08T22:03:39.894Z,75.39
2022-12-08T22:06:12.359Z,75.15
2022-12-08T22:08:39.360Z,75.32
2022-12-08T22:11:08.494Z,75.38
2022-12-08T22:13:36.747Z,75.48
2022-12-08T22:16:06.123Z,75.17
2022-12-08T22:18:34.267Z,75.49
2022-12-08T22:21:01.219Z,75.23
2022-12-08T22:23:28.492Z,74.98
2022-12-08T22:26:00.084Z,74.91
2022-12-08T22:28:27.993Z,75.25
2022-12-08T22:30:54.475Z,75.40
2022-12-08T22:33:21.207Z,75.38
2022-12-08T22:36:08.086Z,75.51
2022-12-08T22:38:36.431Z,75.27
2022-12-08T22:41:05.213Z,74.88
2022-12-08T22:43:32.893Z,74.97
2022-12-08T22:45:59.875Z,75.18
2022-12-08T22:48:26.382Z,74.99
2022-12-08T22:50:59.667Z,74.84
2022-12-08T22:53:26.380Z,74.84
2022-12-08T22:55:52.904Z,74.86
2022-12-08T22:58:19.962Z,74.80
2022-12-08T23:00:46.496Z,75.00
2022-12-08T23:03:13.090Z,74.96
2022-12-08T23:05:40.593Z,75.31
2022-12-08T23:08:08.806Z,75.02
2022-12-08T23:10:35.838Z,75.17
2022-12-08T23:13:04.157Z,75.20
2022-12-08T23:15:31.199Z,75.46
2022-12-08T23:17:57.995Z,75.28
2022-12-08T23:20:24.647Z,75.19
2022-12-08T23:22:51.199Z,75.93
2022-12-08T23:25:18.560Z,75.86
2022-12-08T23:27:45.684Z,75.74
2022-12-08T23:30:12.683Z,75.78
2022-12-08T23:32:39.312Z,76.08
2022-12-08T23:35:06.725Z,76.18
2022-12-08T23:37:33.170Z,75.53
2022-12-08T23:39:59.626Z,75.54
2022-12-08T23:42:26.427Z,75.92
2022-12-08T23:44:52.925Z,75.82
2022-12-08T23:47:19.402Z,76.28
2022-12-08T23:49:45.922Z,76.41
2022-12-08T23:52:13.767Z,76.48
2022-12-08T23:54:40.504Z,75.98
2022-12-08T23:57:07.867Z,75.48
2022-12-08T23:59:34.315Z,75.66
